.
WxDataArchive / Data Records for 2011-03-15
2011-03-14 March 2011 2011-03-16

Data Records for Tuesday, 15 March 2011

Time	Temp	Chill	HIndex	Humid	Dewpt	 Wind 	HiWind	WindDir	Rain 	Barom 
-----	----	-----	------	-----	-----	------	------	-------	-----	----- 
00:00	30.9	30.9	30.9	77	24.6	3	7	112	0.00	30.335 
00:05	30.7	30.7	30.7	78	24.7	2	6	112	0.00	30.335 
00:10	30.7	30.7	30.7	78	24.7	2	9	112	0.00	30.335 
00:15	30.6	30.6	30.6	77	24.3	3	7	90	0.00	30.331 
00:20	30.6	30.6	30.6	77	24.3	3	10	90	0.00	30.331 
00:25	30.4	30.4	30.4	77	24.1	3	9	112	0.00	30.331 
00:30	30.4	30.4	30.4	76	23.8	3	6	112	0.00	30.326 
00:35	30.3	30.3	30.3	76	23.7	3	9	112	0.00	30.326 
00:40	30.3	26.1	30.3	74	23.0	4	10	112	0.00	30.326 
00:45	30.3	26.1	30.3	73	22.7	4	12	112	0.00	30.320 
00:50	30.1	30.1	30.1	73	22.5	2	7	90	0.00	30.320 
00:55	30.1	30.1	30.1	73	22.5	3	8	112	0.00	30.320 
01:00	30.0	25.8	30.0	71	21.8	4	7	90	0.00	30.313 
01:05	30.0	30.0	30.0	70	21.4	3	9	112	0.00	30.313 
01:10	30.0	30.0	30.0	70	21.4	2	7	112	0.00	30.313 
01:15	29.8	29.8	29.8	70	21.2	3	7	90	0.00	30.303 
01:20	29.8	29.8	29.8	69	20.9	2	7	90	0.00	30.303 
01:25	29.8	29.8	29.8	69	20.9	3	5	90	0.00	30.303 
01:30	29.8	29.8	29.8	68	20.5	3	7	90	0.00	30.304 
01:35	29.8	29.8	29.8	68	20.5	3	7	112	0.00	30.304 
01:40	29.8	29.8	29.8	68	20.5	3	7	90	0.00	30.304 
01:45	29.8	29.8	29.8	69	20.9	2	4	90	0.00	30.298 
01:50	29.7	29.7	29.7	69	20.8	2	5	90	0.00	30.298 
01:55	29.7	29.7	29.7	69	20.8	2	4	90	0.00	30.298 
02:00	29.7	29.7	29.7	69	20.8	2	4	112	0.00	30.284 
02:05	29.5	29.5	29.5	70	20.9	1	4	90	0.00	30.284 
02:10	29.5	29.5	29.5	70	20.9	2	9	45	0.00	30.284 
02:15	29.5	29.5	29.5	70	20.9	3	7	112	0.00	30.271 
02:20	29.5	29.5	29.5	70	20.9	3	6	90	0.00	30.271 
02:25	29.5	29.5	29.5	70	20.9	2	5	90	0.00	30.271 
02:30	29.4	29.4	29.4	71	21.2	2	6	90	0.00	30.273 
02:35	29.4	29.4	29.4	71	21.2	2	5	112	0.00	30.273 
02:40	29.3	29.3	29.3	72	21.4	2	4	90	0.00	30.273 
02:45	29.1	29.1	29.1	73	21.5	2	5	90	0.00	30.269 
02:50	29.1	29.1	29.1	73	21.5	1	5	135	0.00	30.269 
02:55	29.1	29.1	29.1	74	21.9	1	5	135	0.00	30.269 
03:00	29.0	29.0	29.0	74	21.8	1	3	112	0.00	30.267 
03:05	29.0	29.0	29.0	75	22.1	1	5	112	0.00	30.267 
03:10	29.0	29.0	29.0	75	22.1	1	4	90	0.00	30.267 
03:15	29.0	29.0	29.0	75	22.1	2	6	112	0.00	30.261 
03:20	29.0	29.0	29.0	75	22.1	2	5	90	0.00	30.261 
03:25	29.1	29.1	29.1	75	22.2	1	4	112	0.00	30.261 
03:30	29.1	29.1	29.1	76	22.5	1	4	112	0.00	30.253 
03:35	29.3	29.3	29.3	75	22.4	2	5	112	0.00	30.253 
03:40	29.3	29.3	29.3	75	22.4	1	4	90	0.00	30.253 
03:45	29.4	29.4	29.4	76	22.8	2	5	90	0.00	30.239 
03:50	29.4	29.4	29.4	76	22.8	1	4	112	0.00	30.239 
03:55	29.4	29.4	29.4	76	22.8	1	3	68	0.00	30.239 
04:00	29.4	29.4	29.4	76	22.8	2	5	90	0.00	30.236 
04:05	29.4	29.4	29.4	76	22.8	2	6	90	0.00	30.236 
04:10	29.4	29.4	29.4	76	22.8	2	7	68	0.00	30.236 
04:15	29.5	29.5	29.5	76	22.9	2	6	90	0.00	30.227 
04:20	29.5	29.5	29.5	76	22.9	3	10	112	0.00	30.227 
04:25	29.7	29.7	29.7	77	23.4	1	3	112	0.00	30.227 
04:30	29.7	29.7	29.7	77	23.4	2	6	112	0.00	30.222 
04:35	29.7	29.7	29.7	77	23.4	2	6	90	0.00	30.222 
04:40	29.8	29.8	29.8	77	23.5	2	5	90	0.00	30.222 
04:45	29.8	29.8	29.8	77	23.5	3	6	90	0.00	30.214 
04:50	30.0	30.0	30.0	77	23.7	3	6	112	0.00	30.214 
04:55	30.0	30.0	30.0	77	23.7	3	6	90	0.00	30.214 
05:00	29.8	29.8	29.8	77	23.5	3	8	90	0.00	30.211 
05:05	29.8	29.8	29.8	77	23.5	2	6	112	0.00	30.211 
05:10	29.8	29.8	29.8	78	23.8	1	5	112	0.00	30.211 
05:15	29.8	29.8	29.8	78	23.8	1	5	90	0.00	30.200 
05:20	29.7	29.7	29.7	78	23.7	2	5	90	0.00	30.200 
05:25	29.8	29.8	29.8	79	24.1	2	5	112	0.00	30.200 
05:30	29.8	29.8	29.8	79	24.1	1	4	112	0.00	30.193 
05:35	29.8	29.8	29.8	79	24.1	1	6	90	0.00	30.193 
05:40	30.0	30.0	30.0	79	24.3	1	5	90	0.00	30.193 
05:45	30.0	30.0	30.0	79	24.3	1	4	90	0.00	30.194 
05:50	30.1	30.1	30.1	79	24.4	1	5	90	0.00	30.194 
05:55	30.1	30.1	30.1	79	24.4	1	4	90	0.00	30.194 
06:00	30.1	30.1	30.1	79	24.4	1	4	112	0.00	30.188 
06:05	30.1	30.1	30.1	79	24.4	1	5	135	0.00	30.188 
06:10	30.3	30.3	30.3	79	24.6	1	5	90	0.00	30.188 
06:15	30.3	30.3	30.3	79	24.6	2	5	90	0.00	30.185 
06:20	30.3	30.3	30.3	79	24.6	2	7	112	0.00	30.185 
06:25	30.4	30.4	30.4	79	24.7	2	7	112	0.00	30.185 
06:30	30.6	26.5	30.6	78	24.6	4	8	112	0.00	30.184 
06:35	30.7	30.7	30.7	78	24.7	3	8	112	0.00	30.184 
06:40	30.7	30.7	30.7	78	24.7	2	7	112	0.00	30.184 
06:45	30.9	30.9	30.9	78	24.9	3	9	112	0.00	30.191 
06:50	30.9	30.9	30.9	79	25.2	1	6	112	0.00	30.191 
06:55	31.0	31.0	31.0	79	25.3	3	7	90	0.00	30.191 
07:00	31.0	31.0	31.0	80	25.6	2	7	90	0.00	30.185 
07:05	31.0	31.0	31.0	80	25.6	2	9	90	0.00	30.185 
07:10	31.2	31.2	31.2	81	26.1	2	5	112	0.00	30.185 
07:15	31.2	31.2	31.2	81	26.1	1	6	90	0.00	30.179 
07:20	31.2	31.2	31.2	82	26.4	1	5	90	0.00	30.179 
07:25	31.2	31.2	31.2	82	26.4	2	5	112	0.00	30.179 
07:30	31.3	31.3	31.3	83	26.7	2	7	90	0.00	30.180 
07:35	31.3	31.3	31.3	84	27.0	1	6	90	0.01	30.180 
07:40	31.3	31.3	31.3	84	27.0	2	6	112	0.00	30.180 
07:45	31.3	31.3	31.3	85	27.3	2	7	68	0.00	30.190 
07:50	31.3	31.3	31.3	85	27.3	2	5	90	0.00	30.190 
07:55	31.3	31.3	31.3	86	27.6	1	5	68	0.00	30.190 
08:00	31.3	31.3	31.3	86	27.6	1	5	112	0.00	30.184 
08:05	31.3	31.3	31.3	86	27.6	1	5	112	0.00	30.184 
08:10	31.3	31.3	31.3	86	27.6	2	7	90	0.00	30.184 
08:15	31.3	31.3	31.3	86	27.6	1	4	112	0.00	30.181 
08:20	31.3	31.3	31.3	86	27.6	1	4	90	0.00	30.181 
08:25	31.5	31.5	31.5	87	28.1	1	4	90	0.00	30.181 
08:30	31.5	31.5	31.5	87	28.1	2	5	90	0.01	30.174 
08:35	31.6	31.6	31.6	87	28.2	1	6	112	0.00	30.174 
08:40	31.8	31.8	31.8	87	28.4	1	4	90	0.00	30.174 
08:45	31.8	31.8	31.8	87	28.4	1	3	135	0.00	30.167 
08:50	31.8	31.8	31.8	87	28.4	1	6	135	0.00	30.167 
08:55	31.8	31.8	31.8	87	28.4	2	6	112	0.00	30.167 
09:00	31.8	31.8	31.8	87	28.4	2	6	90	0.00	30.168 
09:05	31.9	31.9	31.9	87	28.5	3	5	90	0.00	30.168 
09:10	31.9	31.9	31.9	87	28.5	1	6	112	0.00	30.168 
09:15	31.9	31.9	31.9	87	28.5	2	7	90	0.00	30.171 
09:20	32.1	32.1	32.1	88	29.0	2	5	112	0.00	30.171 
09:25	32.1	32.1	32.1	88	29.0	2	4	90	0.01	30.171 
09:30	32.1	32.1	32.1	88	29.0	1	5	90	0.01	30.173 
09:35	32.1	32.1	32.1	88	29.0	2	5	90	0.00	30.173 
09:40	32.1	32.1	32.1	88	29.0	2	5	90	0.01	30.173 
09:45	32.1	32.1	32.1	88	29.0	3	6	90	0.00	30.172 
09:50	32.1	32.1	32.1	89	29.2	2	5	68	0.01	30.172 
09:55	32.1	32.1	32.1	89	29.2	2	5	90	0.00	30.172 
10:00	32.2	32.2	32.2	89	29.3	1	3	112	0.01	30.169 
10:05	32.1	32.1	32.1	89	29.2	2	5	90	0.00	30.169 
10:10	32.1	32.1	32.1	90	29.5	1	6	112	0.00	30.169 
10:15	32.2	32.2	32.2	90	29.6	1	5	112	0.01	30.169 
10:20	32.2	32.2	32.2	90	29.6	1	3	90	0.01	30.169 
10:25	32.2	32.2	32.2	90	29.6	2	4	68	0.01	30.169 
10:30	32.4	32.4	32.4	91	30.1	2	5	112	0.01	30.169 
10:35	32.4	32.4	32.4	91	30.1	2	5	90	0.01	30.169 
10:40	32.4	32.4	32.4	91	30.1	2	6	112	0.01	30.169 
10:45	32.4	32.4	32.4	91	30.1	1	4	112	0.01	30.166 
10:50	32.5	32.5	32.5	92	30.4	1	4	90	0.01	30.166 
10:55	32.5	32.5	32.5	92	30.4	1	4	112	0.01	30.166 
11:00	32.5	32.5	32.5	92	30.4	2	6	90	0.01	30.163 
11:05	32.5	32.5	32.5	92	30.4	2	4	112	0.01	30.163 
11:10	32.5	32.5	32.5	92	30.4	2	4	90	0.01	30.163 
11:15	32.7	32.7	32.7	92	30.6	1	5	112	0.01	30.158 
11:20	32.7	32.7	32.7	92	30.6	1	4	112	0.01	30.158 
11:25	32.8	32.8	32.8	92	30.7	1	3	90	0.01	30.158 
11:30	32.8	32.8	32.8	93	31.0	1	4	135	0.01	30.148 
11:35	32.9	32.9	32.9	93	31.1	2	5	90	0.00	30.148 
11:40	33.1	33.1	33.1	93	31.3	1	5	90	0.01	30.148 
11:45	33.4	33.4	33.4	93	31.6	3	7	90	0.00	30.145 
11:50	33.4	29.7	33.4	93	31.6	4	10	112	0.00	30.145 
11:55	33.5	33.5	33.5	93	31.7	3	9	90	0.00	30.145 
12:00	33.7	33.7	33.7	93	31.9	1	5	90	0.00	30.137 
12:05	33.8	33.8	33.8	93	32.0	3	9	90	0.00	30.137 
12:10	33.8	33.8	33.8	93	32.0	3	11	90	0.00	30.137 
12:15	34.0	30.4	34.0	94	32.5	4	10	90	0.00	30.126 
12:20	34.1	34.1	34.1	94	32.6	3	7	112	0.00	30.126 
12:25	34.4	34.4	34.4	94	32.9	3	6	90	0.00	30.126 
12:30	34.6	34.6	34.6	94	33.1	3	9	112	0.00	30.119 
12:35	34.6	34.6	34.6	94	33.1	3	11	112	0.00	30.119 
12:40	34.7	34.7	34.7	93	32.9	3	9	90	0.00	30.119 
12:45	34.7	34.7	34.7	93	32.9	3	11	90	0.00	30.117 
12:50	34.6	30.1	34.6	93	32.8	5	11	90	0.00	30.117 
12:55	34.7	30.2	34.7	93	32.9	5	12	112	0.00	30.117 
13:00	34.7	31.2	34.7	93	32.9	4	7	90	0.00	30.116 
13:05	34.7	34.7	34.7	93	32.9	3	7	112	0.00	30.116 
13:10	34.7	34.7	34.7	93	32.9	3	10	112	0.00	30.116 
13:15	34.7	31.2	34.7	93	32.9	4	11	90	0.00	30.111 
13:20	34.7	34.7	34.7	93	32.9	3	7	112	0.00	30.111 
13:25	34.7	34.7	34.7	93	32.9	3	7	90	0.00	30.111 
13:30	34.7	34.7	34.7	93	32.9	3	10	90	0.00	30.107 
13:35	34.7	34.7	34.7	93	32.9	3	7	90	0.00	30.107 
13:40	34.9	34.9	34.9	93	33.1	2	8	112	0.00	30.107 
13:45	34.9	34.9	34.9	93	33.1	3	6	112	0.00	30.106 
13:50	34.9	34.9	34.9	94	33.4	3	7	90	0.00	30.106 
13:55	35.0	35.0	35.0	94	33.5	3	7	90	0.00	30.106 
14:00	35.0	35.0	35.0	94	33.5	3	9	90	0.00	30.099 
14:05	35.2	35.2	35.2	94	33.6	3	6	90	0.00	30.099 
14:10	35.3	35.3	35.3	94	33.7	2	7	90	0.00	30.099 
14:15	35.3	35.3	35.3	94	33.7	1	4	90	0.00	30.088 
14:20	35.5	35.5	35.5	94	33.9	2	4	90	0.00	30.088 
14:25	35.5	35.5	35.5	94	33.9	1	4	90	0.00	30.088 
14:30	35.6	35.6	35.6	94	34.0	3	7	90	0.00	30.082 
14:35	35.6	35.6	35.6	94	34.0	2	5	90	0.00	30.082 
14:40	35.9	35.9	35.9	95	34.6	2	6	90	0.00	30.082 
14:45	36.0	36.0	36.0	95	34.7	2	6	90	0.00	30.071 
14:50	36.0	36.0	36.0	95	34.7	3	6	90	0.00	30.071 
14:55	36.2	36.2	36.2	95	34.9	2	7	68	0.00	30.071 
15:00	36.3	36.3	36.3	95	35.0	2	5	90	0.01	30.062 
15:05	36.5	36.5	36.5	95	35.2	3	6	90	0.00	30.062 
15:10	36.3	33.0	36.3	95	35.0	4	10	112	0.00	30.062 
15:15	36.5	33.3	36.5	95	35.2	4	7	90	0.00	30.054 
15:20	36.5	33.3	36.5	95	35.2	4	8	90	0.00	30.054 
15:25	36.6	36.6	36.6	95	35.3	3	6	90	0.00	30.054 
15:30	36.6	36.6	36.6	95	35.3	3	6	112	0.00	30.049 
15:35	36.6	36.6	36.6	95	35.3	2	7	90	0.00	30.049 
15:40	36.6	36.6	36.6	95	35.3	2	6	90	0.00	30.049 
15:45	36.5	33.3	36.5	95	35.2	4	7	90	0.00	30.042 
15:50	36.6	36.6	36.6	95	35.3	3	7	90	0.00	30.042 
15:55	36.6	36.6	36.6	95	35.3	3	6	90	0.00	30.042 
16:00	36.6	36.6	36.6	95	35.3	2	6	68	0.00	30.041 
16:05	36.8	36.8	36.8	95	35.5	3	7	112	0.00	30.041 
16:10	36.8	36.8	36.8	95	35.5	2	5	90	0.00	30.041 
16:15	36.8	36.8	36.8	95	35.5	3	6	90	0.01	30.036 
16:20	36.8	36.8	36.8	95	35.5	3	9	90	0.01	30.036 
16:25	36.9	36.9	36.9	95	35.6	2	4	112	0.00	30.036 
16:30	36.9	36.9	36.9	95	35.6	2	5	90	0.01	30.033 
16:35	37.0	37.0	37.0	95	35.7	2	9	112	0.00	30.033 
16:40	37.0	37.0	37.0	95	35.7	2	6	90	0.00	30.033 
16:45	37.2	37.2	37.2	95	35.9	2	6	90	0.00	30.026 
16:50	37.2	37.2	37.2	95	35.9	2	6	90	0.01	30.026 
16:55	37.2	37.2	37.2	95	35.9	2	6	90	0.00	30.026 
17:00	37.3	37.3	37.3	95	36.0	1	5	90	0.01	30.022 
17:05	37.3	37.3	37.3	95	36.0	1	3	90	0.00	30.022 
17:10	37.5	37.5	37.5	95	36.2	1	3	90	0.01	30.022 
17:15	37.5	37.5	37.5	95	36.2	1	3	90	0.00	30.020 
17:20	37.5	37.5	37.5	95	36.2	1	3	90	0.01	30.020 
17:25	37.6	37.6	37.6	95	36.3	1	5	90	0.01	30.020 
17:30	37.6	37.6	37.6	95	36.3	1	3	90	0.00	30.024 
17:35	37.6	37.6	37.6	95	36.3	2	5	90	0.00	30.024 
17:40	37.6	37.6	37.6	95	36.3	2	4	90	0.01	30.024 
17:45	37.6	37.6	37.6	95	36.3	1	4	112	0.00	30.031 
17:50	37.8	37.8	37.8	96	36.8	1	3	112	0.00	30.031 
17:55	37.8	37.8	37.8	96	36.8	1	4	112	0.00	30.031 
18:00	37.8	37.8	37.8	95	36.5	0	2	112	0.00	30.034 
18:05	37.9	37.9	37.9	96	36.9	0	2	112	0.00	30.034 
18:10	37.9	37.9	37.9	95	36.6	0	2	112	0.00	30.034 
18:15	37.8	37.8	37.8	96	36.8	0	2	112	0.00	30.036 
18:20	37.8	37.8	37.8	96	36.8	0	1	112	0.00	30.036 
18:25	37.9	37.9	37.9	96	36.9	1	3	112	0.00	30.036 
18:30	37.9	37.9	37.9	96	36.9	1	2	112	0.00	30.034 
18:35	37.9	37.9	37.9	96	36.9	0	1	112	0.00	30.034 
18:40	37.9	37.9	37.9	96	36.9	1	3	112	0.00	30.034 
18:45	37.9	37.9	37.9	96	36.9	0	0	---	0.00	30.036 
18:50	37.9	37.9	37.9	96	36.9	0	1	112	0.00	30.036 
18:55	37.8	37.8	37.8	95	36.5	0	0	---	0.00	30.036 
19:00	37.8	37.8	37.8	96	36.8	0	0	---	0.00	30.041 
19:05	37.8	37.8	37.8	95	36.5	0	0	---	0.00	30.041 
19:10	37.8	37.8	37.8	96	36.8	0	0	---	0.00	30.041 
19:15	37.6	37.6	37.6	96	36.6	0	1	112	0.00	30.035 
19:20	37.6	37.6	37.6	96	36.6	0	2	112	0.00	30.035 
19:25	37.5	37.5	37.5	95	36.2	0	1	112	0.00	30.035 
19:30	37.5	37.5	37.5	96	36.5	0	2	112	0.00	30.044 
19:35	37.3	37.3	37.3	96	36.3	0	1	112	0.00	30.044 
19:40	37.3	37.3	37.3	96	36.3	0	0	---	0.00	30.044 
19:45	37.3	37.3	37.3	96	36.3	0	1	112	0.00	30.053 
19:50	37.3	37.3	37.3	96	36.3	0	0	---	0.00	30.053 
19:55	37.2	37.2	37.2	95	35.9	0	0	---	0.00	30.053 
20:00	37.2	37.2	37.2	95	35.9	0	0	---	0.00	30.055 
20:05	37.2	37.2	37.2	95	35.9	0	0	---	0.00	30.055 
20:10	37.2	37.2	37.2	95	35.9	0	0	---	0.00	30.055 
20:15	37.2	37.2	37.2	96	36.2	0	0	---	0.00	30.057 
20:20	37.2	37.2	37.2	96	36.2	0	1	112	0.00	30.057 
20:25	37.2	37.2	37.2	96	36.2	0	0	---	0.00	30.057 
20:30	37.0	37.0	37.0	96	36.0	0	0	---	0.00	30.054 
20:35	37.0	37.0	37.0	96	36.0	0	0	---	0.00	30.054 
20:40	37.0	37.0	37.0	96	36.0	0	1	112	0.00	30.054 
20:45	37.0	37.0	37.0	96	36.0	0	0	---	0.00	30.057 
20:50	37.0	37.0	37.0	96	36.0	0	0	---	0.00	30.057 
20:55	37.0	37.0	37.0	96	36.0	0	0	---	0.00	30.057 
21:00	37.0	37.0	37.0	96	36.0	0	1	112	0.00	30.055 
21:05	37.0	37.0	37.0	96	36.0	0	1	112	0.00	30.055 
21:10	37.0	37.0	37.0	96	36.0	0	1	112	0.00	30.055 
21:15	37.0	37.0	37.0	96	36.0	0	1	112	0.00	30.057 
21:20	36.9	36.9	36.9	96	35.9	0	0	---	0.00	30.057 
21:25	36.9	36.9	36.9	96	35.9	0	0	---	0.00	30.057 
21:30	36.9	36.9	36.9	96	35.9	0	1	112	0.00	30.063 
21:35	36.9	36.9	36.9	96	35.9	0	1	112	0.00	30.063 
21:40	36.9	36.9	36.9	96	35.9	0	0	---	0.00	30.063 
21:45	36.9	36.9	36.9	96	35.9	0	1	112	0.00	30.064 
21:50	36.9	36.9	36.9	96	35.9	0	0	---	0.00	30.064 
21:55	36.9	36.9	36.9	96	35.9	0	0	---	0.00	30.064 
22:00	36.9	36.9	36.9	96	35.9	0	0	---	0.00	30.056 
22:05	36.9	36.9	36.9	96	35.9	0	0	---	0.00	30.056 
22:10	36.9	36.9	36.9	96	35.9	0	0	---	0.00	30.056 
22:15	36.9	36.9	36.9	96	35.9	0	0	---	0.00	30.056 
22:20	36.9	36.9	36.9	96	35.9	0	0	---	0.00	30.056 
22:25	36.9	36.9	36.9	96	35.9	0	0	---	0.00	30.056 
22:30	36.9	36.9	36.9	96	35.9	0	0	---	0.00	30.055 
22:35	36.9	36.9	36.9	96	35.9	0	0	---	0.00	30.055 
22:40	36.9	36.9	36.9	96	35.9	0	0	---	0.00	30.055 
22:45	36.9	36.9	36.9	96	35.9	0	0	---	0.00	30.053 
22:50	36.9	36.9	36.9	96	35.9	0	0	---	0.00	30.053 
22:55	36.9	36.9	36.9	96	35.9	0	0	---	0.00	30.053 
23:00	37.0	37.0	37.0	96	36.0	0	0	---	0.00	30.057 
23:05	37.0	37.0	37.0	96	36.0	0	0	---	0.00	30.057 
23:10	37.0	37.0	37.0	96	36.0	0	0	---	0.00	30.057 
23:15	37.0	37.0	37.0	96	36.0	0	0	---	0.00	30.056 
23:20	37.0	37.0	37.0	96	36.0	0	0	---	0.00	30.056 
23:25	37.2	37.2	37.2	96	36.2	0	0	---	0.00	30.056 
23:30	37.2	37.2	37.2	96	36.2	0	0	---	0.00	30.051 
23:35	37.2	37.2	37.2	96	36.2	0	1	112	0.00	30.051 
23:40	37.2	37.2	37.2	96	36.2	0	1	112	0.00	30.051 
23:45	37.3	37.3	37.3	96	36.3	0	0	---	0.00	30.053 
23:50	37.3	37.3	37.3	96	36.3	0	0	---	0.00	30.053 
23:55	37.3	37.3	37.3	96	36.3	0	0	---	0.00	30.053 

CoCoRaHS
IN-AL-39
A2 Web Hosting
Creative Commons License
GoDaddy
search engine by freefind advanced

loaded 2018-11-19 10:14:07 • last modified 2010-11-18 10:43:29
Privacy PolicyDisclaimer
• wx.awcolley.com is powered by PmWiki v.2002016 •
• all content (unless otherwise noted) © 2018 A W Colley